AVA3951 SKRG-SKBO
Flight info
| Callsign | AVA3951 |
|---|---|
| Flight time | 0h 25m |
| Altitude | 25000 |
| Route | ISVAT2B ISVAT ISVAT5E |
| Aircraft | A320/M-SDE3FGHIRWY/LB1 |
Departure
| Time | 2026-04-25 11:17 |
|---|---|
| Airport | Jose Maria Córdova International Airport (SKRG) |
Arrival
| Time | 2026-04-25 11:43 |
|---|---|
| Airport | El Dorado International Airport (SKBO) |
| Time | Latitude | Longitude | Altitude | Speed | Heading |
|---|---|---|---|---|---|
| 2026-04-25 10:33 | 6.17101 | -75.42690 | 7019 ft | 0 kts | 282° |
| 2026-04-25 11:05 | 6.17101 | -75.42689 | 7018 ft | 1 kts | 282° |
| 2026-04-25 11:05 | 6.17096 | -75.42665 | 7022 ft | 4 kts | 281° |
| 2026-04-25 11:06 | 6.17093 | -75.42639 | 7019 ft | 4 kts | 272° |
| 2026-04-25 11:06 | 6.17093 | -75.42612 | 7016 ft | 3 kts | 265° |
| 2026-04-25 11:06 | 6.17093 | -75.42610 | 7016 ft | 1 kts | 265° |
| 2026-04-25 11:11 | 6.17086 | -75.42617 | 7016 ft | 4 kts | 208° |
| 2026-04-25 11:12 | 6.17057 | -75.42604 | 7015 ft | 5 kts | 148° |
| 2026-04-25 11:12 | 6.16985 | -75.42560 | 7016 ft | 17 kts | 149° |
| 2026-04-25 11:12 | 6.16870 | -75.42492 | 7002 ft | 21 kts | 154° |
| 2026-04-25 11:12 | 6.16720 | -75.42483 | 6994 ft | 24 kts | 179° |
| 2026-04-25 11:13 | 6.16536 | -75.42481 | 6990 ft | 28 kts | 179° |
| 2026-04-25 11:13 | 6.16331 | -75.42479 | 6981 ft | 32 kts | 179° |
| 2026-04-25 11:13 | 6.16105 | -75.42477 | 6977 ft | 33 kts | 179° |
| 2026-04-25 11:13 | 6.15874 | -75.42476 | 6975 ft | 33 kts | 179° |
| 2026-04-25 11:14 | 6.15641 | -75.42474 | 6972 ft | 33 kts | 180° |
| 2026-04-25 11:14 | 6.15419 | -75.42472 | 6975 ft | 33 kts | 180° |
| 2026-04-25 11:14 | 6.15373 | -75.42472 | 6977 ft | 33 kts | 180° |
| 2026-04-25 11:14 | 6.15146 | -75.42472 | 6978 ft | 32 kts | 180° |
| 2026-04-25 11:15 | 6.14929 | -75.42472 | 6977 ft | 16 kts | 181° |
| 2026-04-25 11:15 | 6.14822 | -75.42461 | 6971 ft | 17 kts | 126° |
| 2026-04-25 11:15 | 6.14837 | -75.42374 | 6973 ft | 13 kts | 43° |
| 2026-04-25 11:15 | 6.14863 | -75.42357 | 6975 ft | 12 kts | 31° |
| 2026-04-25 11:16 | 6.14992 | -75.42299 | 6978 ft | 11 kts | 359° |
| 2026-04-25 11:16 | 6.15122 | -75.42299 | 6980 ft | 32 kts | 359° |
| 2026-04-25 11:16 | 6.15595 | -75.42303 | 6982 ft | 102 kts | 359° |
| 2026-04-25 11:17 | 6.16507 | -75.42310 | 6987 ft | 157 kts | 359° |
| 2026-04-25 11:17 | 6.17706 | -75.42322 | 7320 ft | 178 kts | 359° |
| 2026-04-25 11:17 | 6.18975 | -75.42341 | 8000 ft | 187 kts | 359° |
| 2026-04-25 11:17 | 6.20291 | -75.42344 | 8680 ft | 190 kts | 359° |
| 2026-04-25 11:18 | 6.21183 | -75.42258 | 8970 ft | 202 kts | 17° |
| 2026-04-25 11:18 | 6.22319 | -75.41386 | 9325 ft | 216 kts | 60° |
| 2026-04-25 11:18 | 6.22612 | -75.39919 | 9884 ft | 221 kts | 101° |
| 2026-04-25 11:18 | 6.21948 | -75.38536 | 10484 ft | 222 kts | 124° |
| 2026-04-25 11:19 | 6.21304 | -75.37598 | 10898 ft | 224 kts | 126° |
| 2026-04-25 11:19 | 6.20401 | -75.36313 | 11464 ft | 226 kts | 126° |
| 2026-04-25 11:19 | 6.19486 | -75.35017 | 11993 ft | 229 kts | 126° |
| 2026-04-25 11:19 | 6.18577 | -75.33722 | 12531 ft | 231 kts | 126° |
| 2026-04-25 11:20 | 6.17649 | -75.32393 | 13065 ft | 233 kts | 126° |
| 2026-04-25 11:20 | 6.16575 | -75.31117 | 13359 ft | 248 kts | 138° |
| 2026-04-25 11:20 | 6.15143 | -75.30026 | 13557 ft | 266 kts | 151° |
| 2026-04-25 11:20 | 6.13392 | -75.29226 | 13733 ft | 289 kts | 161° |
| 2026-04-25 11:21 | 6.11431 | -75.28496 | 13958 ft | 312 kts | 161° |
| 2026-04-25 11:21 | 6.09316 | -75.27699 | 14156 ft | 336 kts | 160° |
| 2026-04-25 11:21 | 6.07062 | -75.26845 | 14401 ft | 353 kts | 160° |
| 2026-04-25 11:21 | 6.04728 | -75.25980 | 14937 ft | 360 kts | 161° |
| 2026-04-25 11:22 | 6.02359 | -75.25106 | 15530 ft | 365 kts | 161° |
| 2026-04-25 11:22 | 5.99967 | -75.24213 | 16115 ft | 369 kts | 160° |
| 2026-04-25 11:22 | 5.97552 | -75.23300 | 16723 ft | 373 kts | 160° |
| 2026-04-25 11:22 | 5.95115 | -75.22370 | 17305 ft | 377 kts | 160° |
| 2026-04-25 11:23 | 5.92686 | -75.21437 | 17876 ft | 381 kts | 160° |
| 2026-04-25 11:23 | 5.90191 | -75.20475 | 18444 ft | 385 kts | 160° |
| 2026-04-25 11:23 | 5.87674 | -75.19506 | 18952 ft | 389 kts | 159° |
| 2026-04-25 11:23 | 5.85136 | -75.18528 | 19495 ft | 392 kts | 159° |
| 2026-04-25 11:24 | 5.82586 | -75.17543 | 20039 ft | 394 kts | 159° |
| 2026-04-25 11:24 | 5.80012 | -75.16548 | 20580 ft | 397 kts | 159° |
| 2026-04-25 11:24 | 5.77421 | -75.15552 | 21119 ft | 400 kts | 159° |
| 2026-04-25 11:24 | 5.74809 | -75.14551 | 21661 ft | 403 kts | 159° |
| 2026-04-25 11:25 | 5.72182 | -75.13543 | 22202 ft | 406 kts | 159° |
| 2026-04-25 11:25 | 5.69532 | -75.12530 | 22746 ft | 409 kts | 159° |
| 2026-04-25 11:25 | 5.66909 | -75.11507 | 23089 ft | 411 kts | 158° |
| 2026-04-25 11:25 | 5.64237 | -75.10419 | 23166 ft | 403 kts | 157° |
| 2026-04-25 11:26 | 5.61713 | -75.09362 | 23207 ft | 395 kts | 157° |
| 2026-04-25 11:26 | 5.59176 | -75.08288 | 23197 ft | 399 kts | 157° |
| 2026-04-25 11:26 | 5.56641 | -75.07217 | 23196 ft | 393 kts | 157° |
| 2026-04-25 11:26 | 5.54119 | -75.06164 | 23158 ft | 392 kts | 158° |
| 2026-04-25 11:27 | 5.51601 | -75.05122 | 23159 ft | 390 kts | 158° |
| 2026-04-25 11:27 | 5.49087 | -75.04091 | 23161 ft | 390 kts | 158° |
| 2026-04-25 11:27 | 5.46574 | -75.03063 | 23161 ft | 390 kts | 158° |
| 2026-04-25 11:27 | 5.44877 | -75.02368 | 23125 ft | 389 kts | 158° |
| 2026-04-25 11:28 | 5.41603 | -75.01023 | 22796 ft | 379 kts | 158° |
| 2026-04-25 11:28 | 5.39177 | -75.00022 | 22534 ft | 375 kts | 158° |
| 2026-04-25 11:28 | 5.36773 | -74.99027 | 22010 ft | 372 kts | 158° |
| 2026-04-25 11:28 | 5.34389 | -74.98024 | 21516 ft | 371 kts | 157° |
| 2026-04-25 11:29 | 5.32020 | -74.97017 | 21025 ft | 369 kts | 157° |
| 2026-04-25 11:29 | 5.29652 | -74.96008 | 20536 ft | 368 kts | 158° |
| 2026-04-25 11:29 | 5.27297 | -74.95002 | 20041 ft | 368 kts | 157° |
| 2026-04-25 11:29 | 5.24946 | -74.93998 | 19574 ft | 367 kts | 158° |
| 2026-04-25 11:30 | 5.24153 | -74.93661 | 19413 ft | 367 kts | 157° |
| 2026-04-25 11:30 | 5.23413 | -74.93330 | 19283 ft | 365 kts | 155° |
| 2026-04-25 11:30 | 5.21240 | -74.92064 | 18897 ft | 363 kts | 141° |
| 2026-04-25 11:31 | 5.19563 | -74.90213 | 18678 ft | 355 kts | 123° |
| 2026-04-25 11:31 | 5.18315 | -74.88133 | 18607 ft | 342 kts | 121° |
| 2026-04-25 11:31 | 5.17128 | -74.86117 | 18538 ft | 330 kts | 120° |
| 2026-04-25 11:31 | 5.15962 | -74.84122 | 18465 ft | 331 kts | 120° |
| 2026-04-25 11:32 | 5.14804 | -74.82128 | 18414 ft | 331 kts | 120° |
| 2026-04-25 11:32 | 5.13646 | -74.80128 | 18360 ft | 332 kts | 120° |
| 2026-04-25 11:32 | 5.12486 | -74.78123 | 18302 ft | 331 kts | 120° |
| 2026-04-25 11:32 | 5.11340 | -74.76148 | 18236 ft | 331 kts | 120° |
| 2026-04-25 11:33 | 5.10175 | -74.74147 | 18170 ft | 331 kts | 120° |
| 2026-04-25 11:33 | 5.09014 | -74.72152 | 18110 ft | 331 kts | 120° |
| 2026-04-25 11:33 | 5.07855 | -74.70157 | 18030 ft | 331 kts | 120° |
| 2026-04-25 11:33 | 5.06697 | -74.68157 | 17692 ft | 331 kts | 120° |
| 2026-04-25 11:34 | 5.05542 | -74.66160 | 17301 ft | 331 kts | 120° |
| 2026-04-25 11:34 | 5.04385 | -74.64161 | 16895 ft | 331 kts | 120° |
| 2026-04-25 11:34 | 5.03226 | -74.62157 | 16424 ft | 334 kts | 121° |
| 2026-04-25 11:34 | 5.02038 | -74.60108 | 15737 ft | 344 kts | 121° |
| 2026-04-25 11:35 | 5.00827 | -74.58025 | 15302 ft | 345 kts | 121° |
| 2026-04-25 11:35 | 4.99595 | -74.55950 | 14704 ft | 350 kts | 122° |
| 2026-04-25 11:35 | 4.98239 | -74.53891 | 14224 ft | 352 kts | 125° |
| 2026-04-25 11:35 | 4.96853 | -74.51916 | 14079 ft | 341 kts | 126° |
| 2026-04-25 11:36 | 4.95476 | -74.49999 | 13765 ft | 336 kts | 126° |
| 2026-04-25 11:36 | 4.94113 | -74.48108 | 13002 ft | 343 kts | 126° |
| 2026-04-25 11:36 | 4.92736 | -74.46183 | 12480 ft | 331 kts | 126° |
| 2026-04-25 11:36 | 4.91452 | -74.44369 | 12330 ft | 308 kts | 126° |
| 2026-04-25 11:37 | 4.90242 | -74.42644 | 12210 ft | 298 kts | 125° |
| 2026-04-25 11:37 | 4.89072 | -74.40969 | 12102 ft | 289 kts | 125° |
| 2026-04-25 11:37 | 4.87937 | -74.39342 | 11993 ft | 280 kts | 125° |
| 2026-04-25 11:37 | 4.86817 | -74.37757 | 11892 ft | 275 kts | 126° |
| 2026-04-25 11:38 | 4.85675 | -74.36230 | 11906 ft | 270 kts | 127° |
| 2026-04-25 11:38 | 4.84569 | -74.34775 | 11936 ft | 255 kts | 127° |
| 2026-04-25 11:38 | 4.83521 | -74.33393 | 11955 ft | 250 kts | 127° |
| 2026-04-25 11:38 | 4.82473 | -74.32009 | 11909 ft | 247 kts | 127° |
| 2026-04-25 11:39 | 4.81440 | -74.30644 | 11659 ft | 244 kts | 127° |
| 2026-04-25 11:39 | 4.80416 | -74.29291 | 11373 ft | 244 kts | 127° |
| 2026-04-25 11:39 | 4.79394 | -74.27940 | 11081 ft | 243 kts | 127° |
| 2026-04-25 11:39 | 4.78387 | -74.26610 | 10792 ft | 235 kts | 126° |
| 2026-04-25 11:40 | 4.77416 | -74.25327 | 10518 ft | 228 kts | 127° |
| 2026-04-25 11:40 | 4.76472 | -74.24080 | 10299 ft | 217 kts | 127° |
| 2026-04-25 11:40 | 4.75595 | -74.22922 | 9997 ft | 201 kts | 127° |
| 2026-04-25 11:40 | 4.74795 | -74.21865 | 9743 ft | 181 kts | 127° |
| 2026-04-25 11:41 | 4.74062 | -74.20897 | 9489 ft | 169 kts | 127° |
| 2026-04-25 11:41 | 4.73364 | -74.19975 | 9239 ft | 163 kts | 127° |
| 2026-04-25 11:41 | 4.72681 | -74.19074 | 8996 ft | 162 kts | 127° |
| 2026-04-25 11:41 | 4.72005 | -74.18178 | 8767 ft | 161 kts | 125° |
| 2026-04-25 11:42 | 4.71335 | -74.17279 | 8528 ft | 161 kts | 126° |
| 2026-04-25 11:42 | 4.70684 | -74.16423 | 8382 ft | 148 kts | 127° |
| 2026-04-25 11:42 | 4.70141 | -74.15708 | 8373 ft | 104 kts | 127° |
| 2026-04-25 11:42 | 4.69800 | -74.15256 | 8374 ft | 61 kts | 127° |
| 2026-04-25 11:43 | 4.69728 | -74.15075 | 8373 ft | 12 kts | 104° |
| 2026-04-25 11:43 | 4.69716 | -74.14998 | 8373 ft | 10 kts | 95° |
| 2026-04-25 11:43 | 4.69735 | -74.14945 | 8373 ft | 6 kts | 56° |
| 2026-04-25 11:43 | 4.69749 | -74.14928 | 8373 ft | 0 kts | 49° |
| 2026-04-25 11:44 | 4.69773 | -74.14908 | 8372 ft | 10 kts | 36° |
| 2026-04-25 11:45 | 4.69821 | -74.14872 | 8372 ft | 7 kts | 38° |
| 2026-04-25 11:45 | 4.69849 | -74.14850 | 8373 ft | 3 kts | 38° |
| 2026-04-25 11:45 | 4.69866 | -74.14836 | 8373 ft | 9 kts | 38° |
| 2026-04-25 11:45 | 4.69897 | -74.14787 | 8373 ft | 7 kts | 86° |
| 2026-04-25 11:46 | 4.69866 | -74.14734 | 8373 ft | 13 kts | 127° |
| 2026-04-25 11:46 | 4.69820 | -74.14671 | 8373 ft | 10 kts | 127° |
| 2026-04-25 11:46 | 4.69784 | -74.14624 | 8373 ft | 6 kts | 127° |
| 2026-04-25 11:46 | 4.69770 | -74.14605 | 8373 ft | 1 kts | 127° |
| 2026-04-25 11:47 | 4.69745 | -74.14573 | 8373 ft | 16 kts | 127° |
| 2026-04-25 11:47 | 4.69676 | -74.14482 | 8373 ft | 14 kts | 127° |
| 2026-04-25 11:47 | 4.69661 | -74.14440 | 8372 ft | 2 kts | 37° |
| 2026-04-25 11:47 | 4.69686 | -74.14424 | 8372 ft | 4 kts | 37° |
| 2026-04-25 11:48 | 4.69698 | -74.14414 | 8373 ft | 0 kts | 37° |